Time;durP1;ratioP1;P1;durP2;ratioP2;P2;SDS_P1;SDS_P2;PMS_P1;PMS_P2;Temp;Humidity;BMP_temperature;BMP_pressure;BME280_temperature;BME280_humidity;BME280_pressure;Samples;Min_cycle;Max_cycle;Signal;HPM_P1;HPM_P2
2022/09/23 00:04:18;;;;;;;4.88;4.50;;;;;;;5.71;99.05;100527.84;10541045;28;20044;-84
2022/09/23 00:09:20;;;;;;;5.07;4.57;;;;;;;5.50;100.00;100531.41;10538330;28;20099;-84
2022/09/23 00:14:22;;;;;;;5.32;4.93;;;;;;;5.56;100.00;100526.16;10539481;28;20051;-84
2022/09/23 00:19:23;;;;;;;5.80;4.70;;;;;;;5.61;100.00;100520.94;10539009;28;20050;-83
2022/09/23 00:24:26;;;;;;;5.50;4.75;;;;;;;5.42;100.00;100514.91;10522028;28;20555;-83
2022/09/23 00:29:28;;;;;;;5.25;4.38;;;;;;;5.92;98.12;100511.25;10539446;28;20387;-84
2022/09/23 00:34:29;;;;;;;4.00;3.70;;;;;;;5.80;98.30;100510.44;10524778;28;20055;-84
2022/09/23 00:39:31;;;;;;;4.30;3.90;;;;;;;5.80;98.49;100514.78;10541564;28;20044;-84
2022/09/23 00:44:44;;;;;;;5.32;4.75;;;;;;;5.53;99.15;100507.91;10525377;28;20051;-84
2022/09/23 00:49:51;;;;;;;5.03;4.63;;;;;;;5.28;100.00;100507.16;10540124;28;20409;-84
2022/09/23 00:54:57;;;;;;;4.05;3.75;;;;;;;5.48;100.00;100505.31;10533963;28;20064;-84
2022/09/23 01:00:00;;;;;;;4.22;3.83;;;;;;;5.49;99.66;100507.09;10547870;28;20134;-84
2022/09/23 01:05:03;;;;;;;4.40;4.03;;;;;;;5.27;100.00;100500.22;10548186;28;20101;-83
2022/09/23 01:10:06;;;;;;;3.65;3.35;;;;;;;5.35;100.00;100501.03;10532598;28;20051;-83
2022/09/23 01:15:18;;;;;;;3.60;3.30;;;;;;;5.10;100.00;100495.03;10557444;28;20044;-83
2022/09/23 01:20:55;;;;;;;4.05;3.45;;;;;;;4.99;100.00;100484.59;10535196;28;20051;-83
2022/09/23 01:26:29;;;;;;;4.40;4.00;;;;;;;5.19;100.00;100479.38;10535459;28;20046;-84
2022/09/23 01:31:57;;;;;;;4.10;3.70;;;;;;;5.38;99.34;100472.34;10540598;22;20040;-81
2022/09/23 01:37:12;;;;;;;4.20;3.83;;;;;;;5.09;99.95;100475.06;10508563;28;20047;-82
2022/09/23 01:42:30;;;;;;;4.68;4.28;;;;;;;4.86;100.00;100466.41;10535111;28;20048;-80
2022/09/23 01:47:43;;;;;;;;;;;;;;;4.86;100.00;100469.00;10553700;28;20039;-81
2022/09/23 01:52:46;;;;;;;4.50;4.10;;;;;;;4.82;100.00;100465.53;10534959;28;19952;-81
2022/09/23 01:57:56;;;;;;;4.68;4.25;;;;;;;4.71;100.00;100454.28;10517795;28;20123;-81
2022/09/23 02:03:06;;;;;;;4.90;4.50;;;;;;;5.03;100.00;100456.81;10517123;28;20559;-81
2022/09/23 02:08:13;;;;;;;3.75;3.45;;;;;;;5.05;98.81;100448.13;10553031;28;20477;-80
2022/09/23 02:13:31;;;;;;;4.60;4.20;;;;;;;4.93;100.00;100448.16;10553176;28;20075;-81
2022/09/23 02:18:44;;;;;;;4.85;4.35;;;;;;;4.81;100.00;100446.44;10554285;28;20485;-81
2022/09/23 02:24:01;;;;;;;5.28;4.68;;;;;;;4.84;100.00;100439.50;10552868;28;20068;-81
2022/09/23 02:29:15;;;;;;;7.60;5.77;;;;;;;4.63;100.00;100443.00;10554918;28;20043;-81
2022/09/23 02:34:25;;;;;;;7.97;6.00;;;;;;;4.70;100.00;100437.78;10564652;28;20051;-79
2022/09/23 02:39:36;;;;;;;5.90;5.40;;;;;;;4.59;100.00;100423.91;10552886;28;20036;-81
2022/09/23 02:44:39;;;;;;;5.00;4.47;;;;;;;4.72;100.00;100430.81;10531226;28;20048;-80
2022/09/23 02:49:41;;;;;;;5.18;4.68;;;;;;;4.38;100.00;100414.38;10549454;28;20048;-81
2022/09/23 02:54:43;;;;;;;5.85;4.75;;;;;;;4.41;100.00;100414.38;10549454;28;20040;-80
2022/09/23 02:59:45;;;;;;;5.30;4.90;;;;;;;4.60;100.00;100419.56;10531977;28;20078;-81
2022/09/23 03:04:59;;;;;;;6.00;5.40;;;;;;;4.40;100.00;100411.78;10551532;28;20040;-80
2022/09/23 03:10:23;;;;;;;5.03;4.53;;;;;;;4.26;100.00;100412.66;10536294;28;20492;-81
2022/09/23 03:15:41;;;;;;;5.45;4.95;;;;;;;4.20;100.00;100398.75;10551244;28;20089;-81
2022/09/23 03:20:57;;;;;;;5.20;4.80;;;;;;;4.14;100.00;100399.63;10549942;28;20051;-80
2022/09/23 03:26:11;;;;;;;4.72;4.38;;;;;;;4.20;100.00;100396.16;10584729;28;20051;-79
2022/09/23 03:31:16;;;;;;;4.70;4.20;;;;;;;4.68;98.44;100386.56;10516507;28;20115;-81
2022/09/23 03:41:49;;;;;;;5.05;4.55;;;;;;;4.50;100.00;100384.88;10549546;28;20071;-80
2022/09/23 03:46:51;;;;;;;4.90;4.50;;;;;;;4.44;100.00;100377.06;10549318;28;20096;-80
2022/09/23 03:51:54;;;;;;;5.10;4.60;;;;;;;4.43;100.00;100376.22;10550845;28;20067;-83
2022/09/23 03:56:57;;;;;;;6.53;5.93;;;;;;;4.44;100.00;100379.69;10514603;28;20044;-82
2022/09/23 04:01:59;;;;;;;5.75;5.25;;;;;;;4.34;100.00;100384.03;10550061;28;20052;-82
2022/09/23 04:07:01;;;;;;;6.38;5.78;;;;;;;4.06;100.00;100377.94;10532212;28;20051;-82
2022/09/23 04:12:03;;;;;;;6.72;6.13;;;;;;;4.19;100.00;100373.63;10548435;28;20032;-82
2022/09/23 04:17:05;;;;;;;5.88;5.38;;;;;;;4.11;100.00;100370.16;10547967;28;20032;-82
2022/09/23 04:22:08;;;;;;;6.68;6.03;;;;;;;4.29;100.00;100371.03;10561652;28;20044;-81
2022/09/23 04:27:09;;;;;;;6.65;5.35;;;;;;;4.18;100.00;100358.88;10554885;28;20470;-82
2022/09/23 04:32:11;;;;;;;6.55;5.95;;;;;;;4.16;100.00;100358.00;10556406;28;20131;-82
2022/09/23 04:37:12;;;;;;;8.27;7.10;;;;;;;3.83;100.00;100359.75;10556956;28;20044;-81
2022/09/23 04:42:14;;;;;;;7.68;6.95;;;;;;;3.76;100.00;100360.59;10539198;28;20079;-81
2022/09/23 04:47:18;;;;;;;7.85;7.15;;;;;;;4.19;100.00;100355.41;10556403;28;20051;-82
2022/09/23 04:52:19;;;;;;;7.88;7.18;;;;;;;4.04;100.00;100349.34;10555976;28;20115;-81
2022/09/23 04:57:22;;;;;;;8.07;7.38;;;;;;;3.83;100.00;100345.88;10557514;28;20099;-80
2022/09/23 05:02:24;;;;;;;10.07;8.95;;;;;;;4.27;100.00;100351.06;10540569;28;20505;-81
2022/09/23 05:07:25;;;;;;;9.88;8.60;;;;;;;4.08;100.00;100349.34;10573172;28;20047;-79
2022/09/23 05:12:27;;;;;;;10.52;9.48;;;;;;;4.09;100.00;100348.47;10584007;28;20044;-78
2022/09/23 05:17:30;;;;;;;8.80;7.95;;;;;;;4.00;100.00;100352.81;10584722;28;20054;-78
2022/09/23 05:22:31;;;;;;;10.73;9.75;;;;;;;4.17;100.00;100360.63;10575307;28;20446;-81
2022/09/23 05:27:33;;;;;;;9.25;8.43;;;;;;;4.05;100.00;100352.81;10560380;28;20044;-82
2022/09/23 05:32:34;;;;;;;10.13;9.23;;;;;;;3.96;100.00;100352.81;10557884;28;20048;-80
2022/09/23 05:37:37;;;;;;;10.73;9.82;;;;;;;4.47;100.00;100362.31;10555608;28;20071;-80
2022/09/23 05:42:38;;;;;;;12.52;11.52;;;;;;;4.33;100.00;100364.06;10554600;28;20047;-79
2022/09/23 05:47:40;;;;;;;11.88;10.82;;;;;;;4.87;100.00;100349.19;10556228;28;20036;-82
2022/09/23 05:52:42;;;;;;;13.18;12.07;;;;;;;5.03;100.00;100353.47;10536688;28;20051;-80
2022/09/23 05:57:43;;;;;;;14.07;10.93;;;;;;;5.32;100.00;100350.72;10536143;28;20071;-82
2022/09/23 06:02:47;;;;;;;11.05;9.38;;;;;;;5.49;100.00;100345.44;10535377;28;20052;-80
2022/09/23 06:07:49;;;;;;;8.70;8.00;;;;;;;5.60;100.00;100347.09;10550359;28;20066;-78
2022/09/23 06:12:50;;;;;;;9.23;7.00;;;;;;;5.79;100.00;100352.16;10529696;28;20067;-80
2022/09/23 06:17:52;;;;;;;7.13;6.63;;;;;;;6.05;100.00;100352.00;10534062;28;20044;-80
2022/09/23 06:22:54;;;;;;;6.68;6.07;;;;;;;6.34;100.00;100344.81;10555046;28;20070;-80
2022/09/23 06:27:56;;;;;;;5.57;5.07;;;;;;;6.66;100.00;100341.84;10549775;28;20158;-81
2022/09/23 06:32:57;;;;;;;6.00;5.25;;;;;;;7.15;97.06;100346.50;10554621;28;20040;-81
2022/09/23 06:38:03;;;;;;;5.97;5.45;;;;;;;7.30;96.58;100351.50;10566448;28;20070;-80
2022/09/23 06:43:04;;;;;;;5.45;5.05;;;;;;;7.48;94.42;100350.41;10545826;28;20097;-81
2022/09/23 06:48:08;;;;;;;5.32;4.93;;;;;;;7.71;93.76;100350.94;10536117;28;20059;-81
2022/09/23 06:53:11;;;;;;;5.45;4.95;;;;;;;7.93;91.19;100348.00;10556638;28;20066;-82
2022/09/23 06:58:13;;;;;;;8.55;5.07;;;;;;;8.16;89.69;100358.09;10537564;28;20055;-82
2022/09/23 07:03:16;;;;;;;5.57;5.07;;;;;;;8.42;89.55;100353.31;10536351;28;20055;-82
2022/09/23 07:08:18;;;;;;;5.00;4.50;;;;;;;8.58;87.97;100349.50;10519516;28;20075;-81
2022/09/23 07:13:19;;;;;;;5.20;4.70;;;;;;;8.66;88.98;100349.34;10554474;28;20101;-81
2022/09/23 07:18:24;;;;;;;6.63;4.80;;;;;;;8.89;87.42;100345.41;10537288;28;20036;-82
2022/09/23 07:23:26;;;;;;;4.47;4.07;;;;;;;9.29;85.86;100340.22;10534882;28;20066;-83
2022/09/23 07:28:27;;;;;;;4.38;3.67;;;;;;;9.49;82.92;100337.16;10534989;28;20043;-81
2022/09/23 07:33:30;;;;;;;5.40;4.90;;;;;;;9.43;85.56;100342.53;10553030;28;20473;-81
2022/09/23 07:38:34;;;;;;;4.85;4.35;;;;;;;9.70;84.28;100339.31;10539087;22;20059;-71
2022/09/23 07:43:37;;;;;;;4.95;4.18;;;;;;;9.75;83.03;100333.94;10541413;28;20047;-71
2022/09/23 07:48:39;;;;;;;4.65;4.25;;;;;;;9.75;82.00;100337.44;10539953;28;20048;-70
2022/09/23 07:53:40;;;;;;;7.25;3.85;;;;;;;10.39;78.04;100334.13;10540047;28;20353;-69
2022/09/23 07:58:42;;;;;;;4.47;4.07;;;;;;;10.63;76.12;100337.88;10539357;28;20078;-70
2022/09/23 08:03:44;;;;;;;4.60;4.20;;;;;;;10.41;79.14;100341.09;10547610;28;20416;-70
2022/09/23 08:08:46;;;;;;;4.07;3.78;;;;;;;10.34;81.32;100345.63;10547206;28;20109;-69
2022/09/23 08:13:54;;;;;;;4.35;4.03;;;;;;;11.11;74.97;100335.63;10529632;28;20047;-69
2022/09/23 08:18:56;;;;;;;4.57;4.18;;;;;;;11.12;77.19;100342.63;10547947;28;20455;-70
2022/09/23 08:23:58;;;;;;;4.60;3.05;;;;;;;11.51;73.89;100340.59;10547623;28;20078;-69
2022/09/23 08:29:00;;;;;;;5.55;5.00;;;;;;;11.78;73.24;100333.59;10529135;28;20048;-71
2022/09/23 08:34:02;;;;;;;4.82;4.43;;;;;;;11.51;73.08;100335.31;10547257;28;20040;-69
2022/09/23 08:39:04;;;;;;;5.00;4.50;;;;;;;11.93;73.10;100326.97;10526577;28;20070;-69
2022/09/23 08:44:12;;;;;;;4.65;4.25;;;;;;;12.15;72.23;100328.91;10543800;28;20094;-70
2022/09/23 08:49:33;;;;;;;4.40;4.07;;;;;;;12.49;70.20;100326.00;10524780;28;20114;-69
2022/09/23 08:54:35;;;;;;;5.25;4.03;;;;;;;12.63;70.53;100316.66;10543253;28;20059;-69
2022/09/23 08:59:43;;;;;;;4.32;3.90;;;;;;;12.54;71.61;100302.97;10543594;28;20055;-69
2022/09/23 09:04:51;;;;;;;4.28;3.72;;;;;;;12.98;69.87;100297.84;10524868;28;20044;-70
2022/09/23 09:10:04;;;;;;;3.88;3.58;;;;;;;13.69;67.75;100290.72;10524418;28;20036;-70
2022/09/23 09:15:17;;;;;;;3.40;3.10;;;;;;;14.05;65.17;100296.25;10541270;28;20101;-69
2022/09/23 09:20:37;;;;;;;5.70;3.22;;;;;;;14.87;62.66;100290.03;10543225;28;20531;-69
2022/09/23 09:25:45;;;;;;;3.40;2.80;;;;;;;15.43;59.78;100285.66;10524618;28;20036;-69
2022/09/23 09:30:53;;;;;;;3.20;2.85;;;;;;;15.38;59.21;100287.69;10542294;28;20040;-69
2022/09/23 09:36:18;;;;;;;3.28;2.65;;;;;;;15.33;59.11;100289.69;10497584;28;1285570;-69
2022/09/23 09:41:23;;;;;;;4.10;2.60;;;;;;;14.82;61.08;100281.44;10525812;28;20106;-69
2022/09/23 09:46:45;;;;;;;5.72;2.30;;;;;;;14.75;60.21;100284.44;10544284;28;20140;-70
2022/09/23 09:52:01;;;;;;;2.80;2.10;;;;;;;14.43;62.23;100268.16;10545307;28;20516;-70
2022/09/23 09:57:10;;;;;;;3.28;2.17;;;;;;;14.25;64.72;100269.81;10543417;28;20036;-70
2022/09/23 10:02:22;;;;;;;2.50;2.03;;;;;;;15.23;63.10;100259.25;10543376;28;20098;-69
2022/09/23 10:07:27;;;;;;;2.25;1.50;;;;;;;15.56;57.61;100262.09;10524836;28;20067;-69
2022/09/23 10:12:42;;;;;;;2.35;2.03;;;;;;;15.37;59.45;100252.38;10543078;28;20497;-69
2022/09/23 10:17:50;;;;;;;2.15;1.85;;;;;;;15.46;59.51;100250.22;10524119;28;20036;-69
2022/09/23 10:22:52;;;;;;;3.13;1.85;;;;;;;15.55;58.47;100252.44;10542058;28;20486;-69
2022/09/23 10:27:53;;;;;;;1.95;1.52;;;;;;;15.56;56.38;100248.84;10541607;28;20050;-69
2022/09/23 10:32:55;;;;;;;1.50;1.40;;;;;;;15.56;53.23;100244.41;10541845;28;20044;-69
2022/09/23 10:38:00;;;;;;;0.90;0.90;;;;;;;15.38;55.26;100232.06;10542081;28;20036;-69
2022/09/23 10:49:08;;;;;;;1.92;1.10;;;;;;;15.38;55.15;100230.25;10542535;28;20040;-69
2022/09/23 10:54:28;;;;;;;2.22;1.10;;;;;;;15.60;55.12;100221.25;10541291;28;20409;-69
2022/09/23 10:59:56;;;;;;;2.15;0.95;;;;;;;15.65;52.31;100219.28;10541072;28;20032;-69
2022/09/23 11:05:10;;;;;;;1.95;1.10;;;;;;;15.63;52.85;100210.53;10504751;28;20591;-70
2022/09/23 11:10:30;;;;;;;1.15;1.00;;;;;;;15.83;52.68;100206.88;10522948;28;20086;-70
2022/09/23 11:15:53;;;;;;;4.15;1.70;;;;;;;15.88;54.62;100200.41;10539764;28;20094;-70
2022/09/23 11:21:19;;;;;;;1.85;0.70;;;;;;;16.18;53.93;100188.31;10540389;28;20051;-70
2022/09/23 11:26:39;;;;;;;2.23;1.20;;;;;;;16.89;50.00;100184.44;10540220;28;20051;-70
2022/09/23 11:32:01;;;;;;;1.50;0.90;;;;;;;17.48;48.20;100184.66;10539938;28;20672;-69
2022/09/23 11:37:16;;;;;;;2.20;0.80;;;;;;;18.05;46.50;100181.34;10538923;28;20429;-70
2022/09/23 11:42:29;;;;;;;1.40;0.80;;;;;;;18.29;42.07;100176.34;10539661;28;20044;-69
2022/09/23 11:47:39;;;;;;;1.35;0.90;;;;;;;18.06;42.59;100175.94;10539880;28;20068;-69
2022/09/23 11:52:49;;;;;;;1.77;0.80;;;;;;;18.34;44.83;100166.28;10538723;28;20085;-69
2022/09/23 11:57:55;;;;;;;1.77;0.73;;;;;;;18.80;41.54;100158.94;10520833;28;20094;-69
2022/09/23 12:03:17;;;;;;;1.35;0.77;;;;;;;18.64;42.31;100144.88;10539366;28;20036;-69
2022/09/23 12:08:27;;;;;;;1.63;0.98;;;;;;;18.38;44.69;100135.88;10538904;28;20041;-69
2022/09/23 12:14:06;;;;;;;1.80;0.90;;;;;;;18.19;41.95;100138.78;10538387;28;20202;-69
2022/09/23 12:19:26;;;;;;;0.80;0.73;;;;;;;17.93;43.27;100132.44;10538610;28;20047;-69
2022/09/23 12:24:44;;;;;;;1.65;0.90;;;;;;;17.69;42.77;100131.19;10538892;28;20051;-69
2022/09/23 12:29:48;;;;;;;0.82;0.80;;;;;;;17.10;45.21;100137.25;10538524;28;20405;-69
2022/09/23 12:34:51;;;;;;;0.70;0.70;;;;;;;17.22;44.44;100124.19;10519891;28;20448;-68
2022/09/23 12:39:58;;;;;;;1.30;1.02;;;;;;;17.43;44.40;100127.41;10539056;28;20048;-69
2022/09/23 12:45:31;;;;;;;1.00;0.70;;;;;;;17.40;43.88;100121.34;10538535;28;20044;-69
2022/09/23 12:50:50;;;;;;;2.30;0.60;;;;;;;17.33;44.87;100119.13;10546815;28;20036;-69
2022/09/23 12:55:52;;;;;;;0.93;0.80;;;;;;;17.28;45.02;100111.44;10544930;28;20048;-71
2022/09/23 13:01:15;;;;;;;1.02;0.65;;;;;;;17.23;46.22;100108.19;10526970;28;20040;-68
2022/09/23 13:11:40;;;;;;;0.95;0.90;;;;;;;17.35;45.89;100095.97;10544477;28;20044;-69
2022/09/23 13:16:44;;;;;;;1.40;0.70;;;;;;;17.31;44.91;100087.34;10544696;28;20090;-69
2022/09/23 13:21:46;;;;;;;1.67;0.77;;;;;;;17.08;48.54;100078.03;10544433;28;20043;-70
2022/09/23 13:27:19;;;;;;;1.08;0.60;;;;;;;17.20;47.12;100076.47;10544496;28;20098;-70
2022/09/23 13:32:27;;;;;;;3.25;0.70;;;;;;;17.45;46.49;100075.06;10543737;28;20093;-69
2022/09/23 13:37:38;;;;;;;1.25;0.60;;;;;;;17.71;42.97;100073.44;10539922;22;20381;-77
2022/09/23 13:42:43;;;;;;;1.42;0.80;;;;;;;17.64;42.19;100057.88;10528615;28;20048;-77
2022/09/23 13:47:47;;;;;;;0.70;0.70;;;;;;;17.37;43.83;100055.09;10498265;28;20044;-77
2022/09/23 13:52:55;;;;;;;1.02;0.60;;;;;;;17.12;44.88;100053.00;10485668;28;20068;-77
2022/09/23 13:58:00;;;;;;;0.80;0.60;;;;;;;17.13;43.65;100052.09;10484684;28;20040;-76
2022/09/23 14:03:14;;;;;;;0.68;0.60;;;;;;;16.88;46.87;100049.16;10503596;28;20102;-77
2022/09/23 14:08:17;;;;;;;1.23;0.65;;;;;;;16.83;49.44;100037.94;10503852;28;20048;-76
2022/09/23 14:13:41;;;;;;;2.90;1.38;;;;;;;16.85;47.45;100038.69;10503189;28;20080;-77
2022/09/23 14:18:48;;;;;;;2.70;0.90;;;;;;;16.70;47.76;100034.25;10503886;28;20047;-77
2022/09/23 14:23:50;;;;;;;1.67;0.80;;;;;;;16.68;46.74;100028.16;10502725;28;20048;-77
2022/09/23 14:28:53;;;;;;;1.00;0.60;;;;;;;17.03;45.08;100021.69;10501409;28;20036;-77
2022/09/23 14:33:55;;;;;;;1.77;1.10;;;;;;;16.96;46.88;100014.19;10483601;28;20044;-77
2022/09/23 14:39:01;;;;;;;1.23;0.85;;;;;;;16.59;46.24;100006.50;10483644;28;20395;-77
2022/09/23 14:44:04;;;;;;;2.50;0.90;;;;;;;16.78;45.66;100002.84;10484013;28;20043;-77
2022/09/23 14:49:16;;;;;;;1.23;0.60;;;;;;;16.77;45.71;99999.31;10483637;28;20068;-77
2022/09/23 14:54:23;;;;;;;0.95;0.85;;;;;;;16.57;46.14;99991.63;10483528;28;20090;-76
2022/09/23 14:59:30;;;;;;;1.17;1.00;;;;;;;16.13;44.89;99993.19;10482968;28;20082;-76
2022/09/23 15:04:34;;;;;;;1.27;0.95;;;;;;;16.35;45.84;99989.31;10500996;28;20068;-77
2022/09/23 15:09:40;;;;;;;1.30;0.80;;;;;;;16.17;47.99;99982.41;10499406;28;20535;-77
2022/09/23 15:14:48;;;;;;;1.20;1.00;;;;;;;16.04;46.20;99975.13;10499905;28;20044;-77
2022/09/23 15:19:55;;;;;;;2.58;1.17;;;;;;;15.82;47.41;99975.44;10500583;28;20057;-77
2022/09/23 15:25:14;;;;;;;2.00;1.30;;;;;;;15.51;49.89;99983.28;10484936;28;20052;-75
2022/09/23 15:30:18;;;;;;;3.08;1.70;;;;;;;15.26;51.90;99989.00;10503153;28;20530;-77
2022/09/23 15:35:25;;;;;;;1.95;1.80;;;;;;;14.97;52.80;99987.88;10505072;28;20063;-76
2022/09/23 15:40:32;;;;;;;1.35;1.17;;;;;;;14.76;52.79;99981.84;10504084;28;20032;-76
2022/09/23 15:45:41;;;;;;;1.90;1.70;;;;;;;14.66;52.88;99972.66;10503576;28;20075;-76
2022/09/23 15:50:45;;;;;;;2.40;1.70;;;;;;;14.64;54.23;99970.94;10502424;28;20041;-76
2022/09/23 15:55:50;;;;;;;2.60;1.38;;;;;;;14.55;55.88;99966.09;10482987;28;20060;-76
2022/09/23 16:00:54;;;;;;;2.25;2.00;;;;;;;14.48;56.88;99969.09;10501922;28;20379;-76
2022/09/23 16:06:01;;;;;;;2.55;1.85;;;;;;;14.34;57.99;99965.34;10501362;28;20409;-76
2022/09/23 16:11:04;;;;;;;2.90;2.22;;;;;;;14.38;59.30;99958.09;10501304;28;20048;-77
2022/09/23 16:16:07;;;;;;;2.60;2.30;;;;;;;14.26;61.45;99954.28;10502896;28;20048;-76
2022/09/23 16:21:12;;;;;;;3.47;2.83;;;;;;;14.28;61.82;99951.53;10502865;28;20064;-76
2022/09/23 16:26:26;;;;;;;3.38;3.08;;;;;;;14.26;59.61;99950.78;10509606;28;20565;-77
2022/09/23 16:31:31;;;;;;;3.17;2.60;;;;;;;13.94;60.76;99960.22;10509475;28;20044;-76
2022/09/23 16:36:37;;;;;;;5.10;4.18;;;;;;;13.71;61.49;99953.34;10509683;28;20051;-76
2022/09/23 16:41:42;;;;;;;4.60;3.90;;;;;;;13.47;62.36;99948.28;10513774;28;20102;-76
2022/09/23 16:46:44;;;;;;;4.45;4.05;;;;;;;13.34;64.70;99947.97;10514617;28;20062;-78
2022/09/23 16:51:46;;;;;;;4.22;3.83;;;;;;;13.06;67.34;99945.66;10509592;28;20080;-76
2022/09/23 16:56:49;;;;;;;5.00;4.57;;;;;;;13.04;68.24;99950.13;10508857;28;20052;-76
2022/09/23 17:07:11;;;;;;;5.63;4.65;;;;;;;12.62;70.86;99937.00;10508876;28;20050;-76
2022/09/23 17:12:24;;;;;;;6.13;5.60;;;;;;;12.44;72.16;99937.72;10508479;28;20096;-76
2022/09/23 17:17:27;;;;;;;7.00;6.45;;;;;;;12.25;73.17;99933.19;10508511;28;20048;-76
2022/09/23 17:22:29;;;;;;;7.90;7.22;;;;;;;12.06;73.76;99929.59;10507550;28;20040;-76
2022/09/23 17:27:30;;;;;;;8.98;8.20;;;;;;;12.03;74.06;99938.47;10505425;28;20040;-77
2022/09/23 17:32:32;;;;;;;10.18;9.25;;;;;;;11.93;73.75;99936.25;10505153;28;20545;-77
2022/09/23 17:37:35;;;;;;;9.32;8.52;;;;;;;11.83;73.92;99933.13;10488602;28;20480;-77
2022/09/23 17:42:40;;;;;;;8.88;8.23;;;;;;;11.65;73.30;99932.03;10506645;28;20514;-77
2022/09/23 17:47:42;;;;;;;7.90;7.20;;;;;;;11.60;74.28;99936.63;10507109;28;20036;-76
2022/09/23 17:52:43;;;;;;;7.20;6.60;;;;;;;11.56;74.04;99938.50;10488492;28;20063;-77
2022/09/23 17:57:49;;;;;;;9.38;6.95;;;;;;;11.77;76.02;99931.53;10509408;28;20039;-76
2022/09/23 18:02:51;;;;;;;16.17;14.57;;;;;;;11.89;77.00;99943.41;10507870;28;20041;-76
2022/09/23 18:07:53;;;;;;;8.27;7.57;;;;;;;11.77;78.50;99942.06;10505872;28;20044;-76
2022/09/23 18:12:55;;;;;;;8.68;7.88;;;;;;;11.42;78.67;99939.91;10506022;28;20077;-76
2022/09/23 18:17:56;;;;;;;8.30;7.55;;;;;;;11.57;78.81;99940.22;10503035;28;20075;-76
2022/09/23 18:22:58;;;;;;;9.30;8.45;;;;;;;11.34;79.63;99941.06;10485030;28;20044;-75
2022/09/23 18:28:00;;;;;;;10.35;8.98;;;;;;;11.22;80.99;99945.91;10503827;28;20040;-76
2022/09/23 18:33:05;;;;;;;13.10;9.35;;;;;;;11.41;81.84;99939.03;10504382;28;20453;-75
2022/09/23 18:38:07;;;;;;;12.88;11.75;;;;;;;11.15;81.79;99945.25;10503968;28;20056;-75
2022/09/23 18:43:08;;;;;;;9.40;8.48;;;;;;;10.79;83.03;99950.00;10504029;28;20068;-75
2022/09/23 18:53:33;;;;;;;8.80;7.95;;;;;;;10.52;83.96;99947.41;10504817;28;20102;-76
2022/09/23 18:58:35;;;;;;;8.65;7.95;;;;;;;10.50;84.29;99949.22;10502843;28;20044;-76
2022/09/23 19:03:37;;;;;;;10.27;9.35;;;;;;;10.40;84.78;99953.03;10502819;28;20037;-76
2022/09/23 19:08:40;;;;;;;11.00;9.77;;;;;;;10.57;85.05;99949.88;10485282;28;20052;-76
2022/09/23 19:13:41;;;;;;;11.93;10.93;;;;;;;10.44;85.62;99945.94;10486656;28;20409;-75
2022/09/23 19:18:47;;;;;;;12.38;11.38;;;;;;;10.14;86.79;99950.34;10486108;28;20051;-76
2022/09/23 19:23:54;;;;;;;12.80;10.80;;;;;;;10.13;87.81;99948.66;10504315;28;20044;-75
2022/09/23 19:28:56;;;;;;;;;;;;;;;9.99;88.24;99951.69;10501991;28;20075;-76
2022/09/23 19:34:08;;;;;;;12.35;11.18;;;;;;;10.05;88.48;99949.75;10501521;28;19942;-75
2022/09/23 19:39:19;;;;;;;12.75;11.65;;;;;;;10.01;89.65;99950.75;10499788;28;20045;-72
2022/09/23 19:44:23;;;;;;;11.85;10.85;;;;;;;9.81;90.51;99950.50;10500849;28;20048;-73
2022/09/23 19:49:25;;;;;;;13.43;12.07;;;;;;;9.81;91.11;99948.72;10499738;28;20037;-73
2022/09/23 19:54:27;;;;;;;13.82;12.65;;;;;;;9.76;91.22;99945.38;10499171;28;20046;-73
2022/09/23 19:59:29;;;;;;;15.07;13.55;;;;;;;9.71;91.56;99949.06;10507990;28;20041;-73
2022/09/23 20:04:31;;;;;;;14.48;12.57;;;;;;;9.62;92.22;99944.09;10507685;28;20087;-73
2022/09/23 20:09:38;;;;;;;14.27;12.98;;;;;;;9.56;92.66;99942.47;10489446;28;20044;-72
2022/09/23 20:14:41;;;;;;;13.25;12.15;;;;;;;9.49;92.21;99938.31;10489539;28;20052;-73
2022/09/23 20:19:43;;;;;;;14.02;11.02;;;;;;;9.38;91.26;99938.63;10506776;28;20094;-72
2022/09/23 20:24:44;;;;;;;12.30;11.20;;;;;;;9.51;90.58;99933.88;10506122;28;20087;-74
2022/09/23 20:29:47;;;;;;;13.52;12.45;;;;;;;9.63;89.08;99940.53;10488292;28;20044;-72
2022/09/23 20:34:49;;;;;;;11.95;10.95;;;;;;;9.55;89.03;99928.50;10507201;28;20555;-73
2022/09/23 20:39:51;;;;;;;10.63;9.55;;;;;;;9.56;88.89;99924.09;10507060;28;20041;-72
2022/09/23 20:44:53;;;;;;;10.10;9.25;;;;;;;9.51;88.26;99923.38;10505952;28;20044;-73
2022/09/23 20:49:55;;;;;;;9.48;8.68;;;;;;;9.43;88.57;99921.00;10488608;28;20044;-72
2022/09/23 20:54:57;;;;;;;10.00;9.20;;;;;;;9.23;89.16;99918.94;10488438;28;20055;-72
2022/09/23 20:59:59;;;;;;;9.73;9.00;;;;;;;9.13;89.84;99907.00;10487118;28;20048;-72
2022/09/23 21:05:00;;;;;;;9.15;8.45;;;;;;;9.15;89.87;99909.56;10503596;28;20049;-72
2022/09/23 21:10:05;;;;;;;8.80;8.05;;;;;;;9.04;90.14;99913.34;10504720;28;20044;-72
2022/09/23 21:15:07;;;;;;;8.77;8.07;;;;;;;9.10;90.10;99907.91;10505521;28;20128;-73
2022/09/23 21:20:09;;;;;;;8.65;7.85;;;;;;;9.41;87.98;99899.19;10504986;28;20046;-72
2022/09/23 21:25:10;;;;;;;8.02;7.43;;;;;;;9.57;85.53;99897.84;10504044;28;20064;-72
2022/09/23 21:30:29;;;;;;;7.70;7.10;;;;;;;9.53;86.04;99896.22;10504015;28;20440;-73
2022/09/23 21:35:31;;;;;;;8.00;7.25;;;;;;;9.48;86.74;99890.25;10503998;28;20044;-72
2022/09/23 21:45:58;;;;;;;6.88;6.28;;;;;;;9.47;85.72;99892.88;10503471;28;20139;-73
2022/09/23 21:51:07;;;;;;;6.20;5.70;;;;;;;9.28;87.02;99885.56;10503506;28;20100;-73
2022/09/23 21:56:09;;;;;;;6.82;6.32;;;;;;;9.16;88.10;99887.66;10503075;28;20041;-73
2022/09/23 22:01:17;;;;;;;7.40;6.80;;;;;;;9.12;88.48;99888.66;10502408;28;20373;-73
2022/09/23 22:06:21;;;;;;;7.38;6.80;;;;;;;9.08;89.07;99888.75;10503398;28;20048;-72
2022/09/23 22:16:45;;;;;;;6.57;5.97;;;;;;;9.04;89.82;99874.00;10502648;28;20128;-73
2022/09/23 22:21:49;;;;;;;6.50;5.90;;;;;;;9.40;86.45;99876.47;10501403;28;20059;-72
2022/09/23 22:26:51;;;;;;;8.27;6.80;;;;;;;9.70;84.24;99885.22;10502652;28;20109;-73
2022/09/23 22:37:24;;;;;;;7.57;6.97;;;;;;;9.58;85.56;99875.94;10484201;28;20555;-73
2022/09/23 22:42:26;;;;;;;8.00;7.40;;;;;;;9.54;86.00;99866.44;10502488;28;20482;-73
2022/09/23 22:47:28;;;;;;;7.40;6.80;;;;;;;9.55;85.59;99860.28;10502089;28;20040;-73
2022/09/23 22:52:30;;;;;;;7.57;6.85;;;;;;;9.41;86.09;99865.06;10502706;28;20044;-72
2022/09/23 22:57:32;;;;;;;8.65;7.85;;;;;;;9.27;87.79;99856.75;10485522;28;20044;-72
2022/09/23 23:02:34;;;;;;;7.65;7.05;;;;;;;9.34;87.18;99853.03;10503958;28;20037;-72
2022/09/23 23:07:36;;;;;;;7.28;6.57;;;;;;;9.64;84.62;99846.00;10504649;28;20486;-72
2022/09/23 23:12:38;;;;;;;6.93;6.32;;;;;;;9.54;85.29;99850.69;10503059;28;20041;-72
2022/09/23 23:17:42;;;;;;;8.90;6.97;;;;;;;9.37;86.51;99852.09;10485323;28;20056;-73
2022/09/23 23:22:44;;;;;;;6.55;5.95;;;;;;;9.39;86.73;99850.31;10485479;28;20075;-73
2022/09/23 23:27:45;;;;;;;6.95;6.22;;;;;;;9.47;85.60;99837.78;10502870;28;20453;-72
2022/09/23 23:32:47;;;;;;;6.78;6.20;;;;;;;9.53;84.83;99837.63;10502513;28;20040;-74
2022/09/23 23:37:48;;;;;;;6.43;5.82;;;;;;;9.56;84.73;99841.03;10503802;28;20048;-73
2022/09/23 23:42:50;;;;;;;6.57;5.78;;;;;;;9.47;85.91;99837.78;10500259;28;20032;-73
2022/09/23 23:47:52;;;;;;;7.15;6.45;;;;;;;9.39;86.30;99848.53;10500487;28;20048;-73
2022/09/23 23:52:53;;;;;;;7.07;6.47;;;;;;;9.32;86.77;99834.72;10501196;28;20132;-72
2022/09/23 23:57:57;;;;;;;5.95;5.45;;;;;;;9.33;87.48;99828.56;10483735;28;20127;-73
